createdAt,value
2022-09-15T00:00:29.730Z,81.24
2022-09-15T00:03:35.715Z,80.53
2022-09-15T00:06:44.067Z,80.85
2022-09-15T00:09:49.646Z,80.91
2022-09-15T00:12:55.270Z,80.49
2022-09-15T00:16:00.977Z,81.27
2022-09-15T00:19:07.871Z,81.01
2022-09-15T00:22:16.648Z,81.59
2022-09-15T00:25:22.199Z,81.32
2022-09-15T00:28:27.723Z,81.86
2022-09-15T00:31:35.588Z,82.32
2022-09-15T00:34:42.386Z,81.98
2022-09-15T00:37:51.514Z,82.45
2022-09-15T00:41:00.276Z,82.31
2022-09-15T00:44:29.311Z,83.11
2022-09-15T00:47:43.443Z,83.46
2022-09-15T00:50:59.964Z,83.40
2022-09-15T00:54:17.483Z,83.09
2022-09-15T00:57:31.871Z,83.01
2022-09-15T01:00:38.615Z,83.21
2022-09-15T01:03:45.317Z,82.88
2022-09-15T01:06:58.179Z,83.02
2022-09-15T01:10:11.947Z,82.79
2022-09-15T01:13:20.039Z,83.57
2022-09-15T01:16:48.109Z,83.69
2022-09-15T01:20:37.121Z,84.11
2022-09-15T01:24:29.535Z,83.90
2022-09-15T01:28:33.314Z,83.47
2022-09-15T01:32:02.966Z,84.22
2022-09-15T01:35:29.311Z,84.04
2022-09-15T01:38:50.626Z,84.06
2022-09-15T01:42:04.221Z,84.39
2022-09-15T01:45:17.089Z,83.79
2022-09-15T01:48:31.242Z,84.00
2022-09-15T01:51:42.094Z,84.27
2022-09-15T01:54:54.734Z,83.71
2022-09-15T01:58:02.437Z,83.31
2022-09-15T02:01:16.972Z,83.71
2022-09-15T02:04:36.905Z,83.31
2022-09-15T02:07:54.949Z,83.64
2022-09-15T02:11:16.560Z,83.95
2022-09-15T02:14:44.018Z,83.57
2022-09-15T02:17:55.571Z,83.85
2022-09-15T02:21:19.153Z,83.35
2022-09-15T02:24:34.660Z,83.15
2022-09-15T02:27:50.120Z,83.18
2022-09-15T02:31:02.365Z,82.73
2022-09-15T02:34:18.036Z,82.73
2022-09-15T02:37:27.610Z,83.14
2022-09-15T02:40:35.845Z,83.05
2022-09-15T02:43:49.489Z,83.16
2022-09-15T02:46:55.394Z,83.84
2022-09-15T02:50:01.306Z,83.80
2022-09-15T02:53:10.101Z,83.16
2022-09-15T02:56:17.243Z,83.32
2022-09-15T02:59:25.096Z,82.80
2022-09-15T03:02:31.356Z,82.71
2022-09-15T03:05:36.856Z,83.36
2022-09-15T03:08:45.455Z,83.01
2022-09-15T03:11:51.017Z,82.95
2022-09-15T03:14:56.717Z,82.86
2022-09-15T03:18:02.443Z,82.13
2022-09-15T03:21:11.819Z,82.01
2022-09-15T03:24:20.038Z,81.86
2022-09-15T03:27:25.932Z,82.13
2022-09-15T03:30:31.448Z,81.82
2022-09-15T03:33:37.221Z,82.33
2022-09-15T03:36:43.343Z,81.98
2022-09-15T03:39:52.311Z,81.89
2022-09-15T03:42:57.850Z,82.17
2022-09-15T03:46:05.537Z,82.29
2022-09-15T03:49:11.153Z,82.06
2022-09-15T03:52:16.817Z,81.94
2022-09-15T03:55:24.949Z,82.05
2022-09-15T03:58:31.021Z,82.87
2022-09-15T04:01:38.236Z,82.96
2022-09-15T04:04:44.285Z,82.17
2022-09-15T04:07:49.847Z,82.07
2022-09-15T04:10:57.925Z,81.70
2022-09-15T04:14:06.258Z,81.44
2022-09-15T04:17:15.686Z,80.96
2022-09-15T04:20:21.637Z,81.55
2022-09-15T04:23:27.353Z,81.53
2022-09-15T04:26:39.615Z,81.25
2022-09-15T04:29:45.541Z,81.15
2022-09-15T04:32:52.610Z,81.20
2022-09-15T04:36:02.399Z,80.64
2022-09-15T04:39:09.115Z,80.72
2022-09-15T04:42:17.589Z,80.63
2022-09-15T04:45:23.304Z,80.35
2022-09-15T04:48:30.133Z,80.60
2022-09-15T04:51:35.864Z,79.92
2022-09-15T04:54:41.413Z,79.41
2022-09-15T04:57:49.657Z,79.27
2022-09-15T05:00:55.240Z,79.52
2022-09-15T05:04:02.403Z,79.80
2022-09-15T05:07:08.123Z,79.32
2022-09-15T05:10:14.364Z,79.50
2022-09-15T05:13:34.922Z,79.36
2022-09-15T05:16:41.220Z,79.34
2022-09-15T05:19:52.728Z,79.70
2022-09-15T05:22:58.253Z,79.21
2022-09-15T05:26:07.783Z,78.52
2022-09-15T05:29:16.201Z,78.64
2022-09-15T05:32:21.702Z,77.82
2022-09-15T05:35:27.366Z,78.11
2022-09-15T05:38:35.141Z,77.94
2022-09-15T05:41:40.955Z,77.62
2022-09-15T05:44:49.198Z,76.39
2022-09-15T05:47:54.725Z,76.14
2022-09-15T05:51:07.963Z,75.85
2022-09-15T05:54:15.911Z,76.08
2022-09-15T05:57:21.507Z,76.24
2022-09-15T06:00:30.011Z,76.44
2022-09-15T06:03:35.662Z,76.42
2022-09-15T06:06:41.359Z,76.35
2022-09-15T06:09:46.938Z,76.18
2022-09-15T06:12:53.529Z,77.10
2022-09-15T06:16:09.321Z,77.73
2022-09-15T06:19:15.113Z,78.14
2022-09-15T06:22:20.657Z,78.78
2022-09-15T06:25:27.975Z,78.74
2022-09-15T06:28:33.589Z,79.40
2022-09-15T06:31:41.928Z,79.32
2022-09-15T06:34:47.616Z,80.03
2022-09-15T06:37:54.173Z,79.29
2022-09-15T06:41:02.403Z,79.02
2022-09-15T06:44:07.998Z,79.40
2022-09-15T06:47:23.652Z,79.37
2022-09-15T06:50:29.443Z,79.32
2022-09-15T06:53:38.284Z,80.18
2022-09-15T06:56:45.555Z,79.81
2022-09-15T06:59:51.711Z,80.60
2022-09-15T07:03:00.222Z,80.41
2022-09-15T07:06:09.201Z,80.46
2022-09-15T07:09:15.749Z,79.71
2022-09-15T07:12:21.283Z,80.18
2022-09-15T07:15:28.435Z,79.65
2022-09-15T07:18:42.866Z,78.98
2022-09-15T07:21:48.917Z,78.49
2022-09-15T07:24:54.430Z,77.63
2022-09-15T07:27:59.967Z,77.41
2022-09-15T07:31:07.611Z,77.07
2022-09-15T07:34:15.838Z,76.66
2022-09-15T07:37:27.930Z,76.83
2022-09-15T07:40:34.375Z,76.26
2022-09-15T07:43:40.573Z,75.96
2022-09-15T07:46:46.521Z,76.31
2022-09-15T07:49:54.637Z,75.33
2022-09-15T07:53:02.333Z,74.99
2022-09-15T07:56:08.817Z,73.40
2022-09-15T07:59:16.492Z,73.35
2022-09-15T08:02:24.290Z,73.33
2022-09-15T08:05:37.345Z,72.51
2022-09-15T08:08:45.840Z,72.15
2022-09-15T08:11:51.370Z,72.40
2022-09-15T08:14:56.869Z,72.83
2022-09-15T08:18:06.629Z,72.97
2022-09-15T08:21:20.347Z,72.72
2022-09-15T08:24:26.604Z,72.05
2022-09-15T08:27:32.198Z,71.91
2022-09-15T08:30:38.371Z,72.06
2022-09-15T08:33:45.877Z,71.90
2022-09-15T08:36:55.114Z,71.31
2022-09-15T08:40:02.916Z,71.69
2022-09-15T08:43:26.272Z,72.34
2022-09-15T08:46:42.899Z,72.01
2022-09-15T08:50:05.411Z,71.92
2022-09-15T08:53:22.905Z,71.26
2022-09-15T08:56:33.269Z,72.38
2022-09-15T08:59:41.221Z,71.57
2022-09-15T09:03:29.618Z,71.69
2022-09-15T09:06:56.774Z,70.65
2022-09-15T09:10:19.604Z,70.65
2022-09-15T09:13:46.636Z,69.63
2022-09-15T09:17:32.603Z,70.15
2022-09-15T09:21:00.346Z,68.76
2022-09-15T09:24:17.801Z,68.36
2022-09-15T09:27:31.932Z,67.07
2022-09-15T09:30:40.435Z,66.53
2022-09-15T09:33:54.644Z,66.18
2022-09-15T09:37:13.504Z,66.78
2022-09-15T09:40:20.299Z,65.60
2022-09-15T09:43:32.516Z,64.88
2022-09-15T09:46:38.101Z,66.08
2022-09-15T09:49:50.592Z,66.77
2022-09-15T09:52:56.076Z,67.09
2022-09-15T09:56:27.983Z,66.23
2022-09-15T09:59:45.448Z,65.83
2022-09-15T10:02:51.569Z,64.64
2022-09-15T10:06:09.708Z,64.29
2022-09-15T10:09:20.934Z,64.62
2022-09-15T10:12:33.902Z,65.30
2022-09-15T10:15:43.615Z,67.00
2022-09-15T10:18:54.410Z,66.84
2022-09-15T10:22:04.021Z,67.43
2022-09-15T10:25:58.164Z,68.61
2022-09-15T10:29:19.198Z,68.32
2022-09-15T10:32:34.596Z,68.11
2022-09-15T10:35:46.118Z,68.82
2022-09-15T10:39:03.039Z,69.76
2022-09-15T10:42:26.070Z,70.66
2022-09-15T10:45:41.055Z,71.30
2022-09-15T10:49:10.178Z,70.49
2022-09-15T10:52:39.144Z,71.13
2022-09-15T10:56:00.834Z,70.60
2022-09-15T10:59:32.286Z,70.66
2022-09-15T11:03:28.442Z,69.94
2022-09-15T11:06:53.294Z,70.40
2022-09-15T11:10:17.240Z,68.50
2022-09-15T11:13:36.392Z,67.41
2022-09-15T11:17:13.679Z,67.39
2022-09-15T11:21:05.765Z,66.98
2022-09-15T11:24:39.667Z,65.43
2022-09-15T11:27:54.545Z,65.06
2022-09-15T11:31:10.126Z,64.35
2022-09-15T11:34:26.628Z,64.46
2022-09-15T11:37:46.299Z,63.64
2022-09-15T11:41:07.824Z,64.98
2022-09-15T11:44:32.473Z,65.90
2022-09-15T11:47:48.028Z,66.70
2022-09-15T11:51:06.162Z,67.55
2022-09-15T11:54:31.626Z,67.82
2022-09-15T11:57:54.006Z,68.48
2022-09-15T12:01:10.811Z,69.30
2022-09-15T12:04:26.522Z,68.80
2022-09-15T12:07:42.044Z,69.37
2022-09-15T12:10:55.266Z,70.02
2022-09-15T12:14:07.118Z,69.77
2022-09-15T12:17:28.150Z,69.03
2022-09-15T12:20:46.329Z,69.90
2022-09-15T12:24:05.206Z,70.15
2022-09-15T12:27:20.892Z,70.06
2022-09-15T12:30:45.178Z,70.50
2022-09-15T12:33:58.937Z,70.39
2022-09-15T12:37:16.093Z,69.73
2022-09-15T12:40:38.701Z,70.79
2022-09-15T12:43:58.491Z,70.84
2022-09-15T12:47:34.804Z,72.28
2022-09-15T12:50:46.706Z,72.79
2022-09-15T12:53:59.918Z,72.73
2022-09-15T12:57:10.429Z,72.84
2022-09-15T13:00:34.985Z,73.69
2022-09-15T13:04:46.519Z,72.94
2022-09-15T13:08:03.680Z,72.30
2022-09-15T13:11:15.987Z,72.36
2022-09-15T13:14:36.638Z,72.77
2022-09-15T13:17:49.459Z,73.00
2022-09-15T13:21:10.389Z,72.46
2022-09-15T13:24:31.837Z,73.22
2022-09-15T13:27:43.968Z,72.36
2022-09-15T13:31:23.563Z,71.62
2022-09-15T13:35:17.243Z,72.24
2022-09-15T13:39:09.793Z,71.66
2022-09-15T13:42:36.217Z,72.30
2022-09-15T13:46:17.315Z,72.23
2022-09-15T13:49:50.840Z,71.97
2022-09-15T13:53:29.619Z,72.51
2022-09-15T13:56:41.572Z,72.71
2022-09-15T13:59:49.901Z,72.63
2022-09-15T14:03:01.073Z,72.87
2022-09-15T14:06:17.364Z,72.20
2022-09-15T14:09:31.226Z,72.27
2022-09-15T14:12:40.036Z,72.76
2022-09-15T14:16:02.871Z,73.05
2022-09-15T14:19:34.005Z,73.57
2022-09-15T14:22:44.017Z,74.11
2022-09-15T14:25:49.782Z,74.21
2022-09-15T14:29:00.324Z,74.53
2022-09-15T14:32:10.019Z,74.01
2022-09-15T14:35:23.204Z,74.56
2022-09-15T14:38:29.548Z,73.90
2022-09-15T14:41:36.038Z,73.64
2022-09-15T14:48:20.539Z,74.84
2022-09-15T14:51:33.340Z,75.26
2022-09-15T14:54:42.021Z,75.52
2022-09-15T14:57:59.128Z,75.37
2022-09-15T15:01:16.375Z,75.07
2022-09-15T15:04:37.664Z,74.83
2022-09-15T15:07:46.544Z,73.94
2022-09-15T15:10:52.463Z,74.52
2022-09-15T15:14:00.174Z,75.28
2022-09-15T15:17:14.989Z,75.81
2022-09-15T15:20:28.615Z,76.05
2022-09-15T15:23:36.343Z,76.06
2022-09-15T15:26:45.256Z,76.16
2022-09-15T15:29:51.969Z,76.30
2022-09-15T15:32:58.364Z,76.02
2022-09-15T15:36:12.029Z,76.32
2022-09-15T15:39:27.733Z,76.55
2022-09-15T15:42:33.457Z,75.67
2022-09-15T15:45:51.867Z,75.88
2022-09-15T15:48:57.398Z,75.60
2022-09-15T15:52:12.522Z,75.26
2022-09-15T15:55:22.424Z,74.68
2022-09-15T15:58:28.074Z,75.75
2022-09-15T16:01:33.939Z,75.53
2022-09-15T16:04:39.492Z,75.83
2022-09-15T16:07:53.300Z,75.76
2022-09-15T16:11:00.944Z,74.72
2022-09-15T16:14:06.792Z,73.79
2022-09-15T16:17:12.411Z,74.42
2022-09-15T16:20:19.912Z,73.91
2022-09-15T16:23:28.038Z,73.93
2022-09-15T16:26:35.731Z,73.61
2022-09-15T16:29:44.183Z,72.66
2022-09-15T16:32:49.776Z,73.05
2022-09-15T16:36:07.066Z,72.49
2022-09-15T16:39:15.321Z,72.15
2022-09-15T16:42:21.022Z,72.90
2022-09-15T16:45:39.817Z,73.13
2022-09-15T16:48:48.982Z,73.75
2022-09-15T16:51:54.639Z,73.90
2022-09-15T16:55:02.912Z,73.97
2022-09-15T16:58:09.948Z,74.61
2022-09-15T17:01:21.973Z,74.97
2022-09-15T17:04:32.235Z,75.18
2022-09-15T17:07:37.815Z,75.22
2022-09-15T17:10:52.790Z,75.65
2022-09-15T17:13:58.430Z,74.84
2022-09-15T17:17:03.977Z,74.76
2022-09-15T17:20:10.597Z,74.92
2022-09-15T17:23:27.806Z,74.84
2022-09-15T17:26:36.167Z,74.89
2022-09-15T17:29:41.685Z,74.79
2022-09-15T17:32:47.669Z,74.70
2022-09-15T17:35:53.795Z,74.29
2022-09-15T17:38:59.589Z,74.47
2022-09-15T17:42:09.180Z,74.35
2022-09-15T17:45:23.718Z,73.99
2022-09-15T17:48:29.373Z,74.56
2022-09-15T17:51:35.489Z,73.65
2022-09-15T17:54:41.304Z,73.50
2022-09-15T17:57:50.651Z,73.72
2022-09-15T18:00:57.502Z,73.95
2022-09-15T18:04:03.184Z,73.70
2022-09-15T18:07:14.828Z,73.16
2022-09-15T18:10:21.829Z,74.15
2022-09-15T18:13:34.442Z,74.37
2022-09-15T18:16:42.811Z,74.20
2022-09-15T18:19:50.834Z,74.13
2022-09-15T18:22:58.901Z,74.22
2022-09-15T18:26:05.375Z,73.75
2022-09-15T18:29:13.561Z,74.19
2022-09-15T18:32:21.722Z,73.99
2022-09-15T18:35:28.673Z,74.24
2022-09-15T18:38:34.434Z,74.08
2022-09-15T18:41:40.366Z,74.51
2022-09-15T18:44:48.662Z,74.71
2022-09-15T18:47:59.162Z,74.99
2022-09-15T18:51:05.312Z,75.25
2022-09-15T18:54:13.499Z,75.50
2022-09-15T18:57:19.413Z,75.30
2022-09-15T19:00:29.189Z,75.59
2022-09-15T19:03:37.983Z,75.96
2022-09-15T19:06:43.855Z,76.20
2022-09-15T19:09:56.239Z,76.81
2022-09-15T19:13:02.397Z,76.20
2022-09-15T19:16:13.552Z,76.17
2022-09-15T19:19:19.783Z,75.64
2022-09-15T19:22:25.471Z,75.59
2022-09-15T19:25:31.051Z,75.57
2022-09-15T19:28:36.776Z,75.83
2022-09-15T19:31:45.291Z,75.16
2022-09-15T19:34:51.873Z,74.92
2022-09-15T19:37:57.833Z,74.36
2022-09-15T19:41:08.636Z,74.20
2022-09-15T19:44:14.256Z,74.23
2022-09-15T19:47:24.006Z,73.50
2022-09-15T19:50:29.699Z,73.41
2022-09-15T19:53:35.303Z,73.18
2022-09-15T19:56:41.461Z,73.24
2022-09-15T19:59:47.618Z,72.35
2022-09-15T20:02:56.994Z,72.84
2022-09-15T20:06:03.738Z,72.99
2022-09-15T20:09:19.285Z,73.21
2022-09-15T20:12:25.897Z,73.48
2022-09-15T20:15:32.226Z,73.75
2022-09-15T20:18:43.405Z,73.93
2022-09-15T20:21:51.652Z,74.11
2022-09-15T20:25:01.382Z,74.58
2022-09-15T20:28:08.477Z,74.10
2022-09-15T20:31:18.521Z,74.58
2022-09-15T20:34:28.044Z,74.69
2022-09-15T20:37:37.416Z,74.85
2022-09-15T20:40:44.577Z,74.88
2022-09-15T20:43:51.330Z,75.20
2022-09-15T20:46:57.833Z,75.56
2022-09-15T20:50:07.104Z,75.79
2022-09-15T20:53:14.118Z,75.86
2022-09-15T20:56:25.187Z,76.16
2022-09-15T20:59:32.119Z,76.35
2022-09-15T21:02:38.865Z,76.52
2022-09-15T21:05:48.639Z,76.66
2022-09-15T21:08:58.070Z,76.48
2022-09-15T21:12:04.427Z,76.08
2022-09-15T21:15:16.009Z,75.92
2022-09-15T21:18:22.450Z,75.55
2022-09-15T21:21:34.418Z,74.94
2022-09-15T21:24:40.741Z,74.71
2022-09-15T21:27:47.088Z,74.63
2022-09-15T21:30:53.918Z,74.72
2022-09-15T21:34:02.663Z,74.74
2022-09-15T21:37:11.585Z,74.15
2022-09-15T21:40:18.651Z,74.48
2022-09-15T21:43:25.203Z,74.68
2022-09-15T21:46:34.473Z,74.64
2022-09-15T21:49:40.679Z,74.94
2022-09-15T21:52:49.567Z,74.46
2022-09-15T21:55:56.911Z,75.57
2022-09-15T21:59:05.895Z,76.89
2022-09-15T22:02:12.308Z,77.16
2022-09-15T22:05:19.003Z,76.64
2022-09-15T22:08:28.023Z,76.75
2022-09-15T22:11:35.529Z,76.43
2022-09-15T22:14:41.823Z,76.76
2022-09-15T22:17:48.055Z,76.27
2022-09-15T22:20:54.535Z,76.67
2022-09-15T22:24:04.681Z,76.46
2022-09-15T22:27:11.279Z,76.48
2022-09-15T22:30:17.531Z,76.54
2022-09-15T22:33:23.956Z,76.30
2022-09-15T22:36:34.169Z,75.67
2022-09-15T22:39:58.484Z,76.37
2022-09-15T22:43:05.549Z,76.30
2022-09-15T22:46:13.401Z,75.97
2022-09-15T22:49:20.111Z,76.10
2022-09-15T22:52:26.358Z,75.93
2022-09-15T22:55:36.763Z,75.66
2022-09-15T22:58:46.981Z,75.74
2022-09-15T23:01:53.420Z,75.24
2022-09-15T23:04:59.460Z,75.19
2022-09-15T23:08:06.859Z,75.20
2022-09-15T23:11:17.356Z,74.79
2022-09-15T23:14:24.067Z,74.51
2022-09-15T23:17:29.594Z,74.01
2022-09-15T23:20:36.308Z,73.90
2022-09-15T23:23:46.780Z,74.08
2022-09-15T23:26:55.093Z,74.02
2022-09-15T23:30:00.823Z,73.64
2022-09-15T23:33:06.618Z,74.02
2022-09-15T23:36:16.238Z,73.66
2022-09-15T23:39:21.865Z,73.95
2022-09-15T23:42:32.414Z,73.67
2022-09-15T23:45:38.015Z,73.06
2022-09-15T23:48:44.125Z,73.42
2022-09-15T23:51:49.770Z,73.27
2022-09-15T23:54:55.346Z,73.69
2022-09-15T23:58:03.511Z,73.00
